Time;durP1;ratioP1;P1;durP2;ratioP2;P2;SDS_P1;SDS_P2;PMS_P1;PMS_P2;Temp;Humidity;BMP_temperature;BMP_pressure;BME280_temperature;BME280_humidity;BME280_pressure;Samples;Min_cycle;Max_cycle;Signal;HPM_P1;HPM_P2
2023/09/22 00:02:09;;;;;;;37.25;25.02;;;14.60;99.90;;;;;;4940060;29;20075;-88
2023/09/22 00:04:35;;;;;;;39.30;25.48;;;14.50;99.90;;;;;;4932900;29;20114;-88
2023/09/22 00:07:01;;;;;;;37.78;24.60;;;14.50;99.90;;;;;;4955230;28;20464;-88
2023/09/22 00:09:26;;;;;;;39.50;26.65;;;14.50;99.90;;;;;;4945663;28;20114;-88
2023/09/22 00:11:52;;;;;;;34.80;24.38;;;14.50;99.90;;;;;;4955083;28;20147;-87
2023/09/22 00:14:17;;;;;;;38.53;24.73;;;14.50;99.90;;;;;;4955871;28;20055;-87
2023/09/22 00:16:43;;;;;;;42.10;26.90;;;14.50;99.90;;;;;;4954473;28;20027;-88
2023/09/22 00:19:09;;;;;;;35.42;25.13;;;14.40;99.90;;;;;;4937456;29;20219;-87
2023/09/22 00:21:35;;;;;;;39.72;25.38;;;14.40;99.90;;;;;;4953918;29;20023;-88
2023/09/22 00:24:02;;;;;;;35.85;25.27;;;14.30;99.90;;;;;;4955198;29;20027;-87
2023/09/22 00:26:28;;;;;;;38.20;25.65;;;14.30;99.90;;;;;;4955033;28;20078;-87
2023/09/22 00:28:54;;;;;;;35.53;23.50;;;14.30;99.90;;;;;;4954624;28;20027;-87
2023/09/22 00:31:19;;;;;;;32.55;22.25;;;14.30;99.90;;;;;;4954526;29;20447;-87
2023/09/22 00:33:45;;;;;;;31.60;20.38;;;14.20;99.90;;;;;;4939190;29;20151;-88
2023/09/22 00:36:11;;;;;;;32.30;20.40;;;14.20;99.90;;;;;;4954812;28;20381;-88
2023/09/22 00:38:36;;;;;;;34.42;21.17;;;14.00;99.90;;;;;;4954642;28;20190;-89
2023/09/22 00:41:02;;;;;;;31.42;19.20;;;14.00;99.90;;;;;;4938816;29;20100;-88
2023/09/22 00:43:27;;;;;;;34.67;21.00;;;13.90;99.90;;;;;;4949099;28;20031;-88
2023/09/22 00:45:53;;;;;;;28.23;19.58;;;13.80;99.90;;;;;;4955406;28;20027;-88
2023/09/22 00:48:22;;;;;;;32.33;20.80;;;13.70;99.90;;;;;;4954799;29;20038;-87
2023/09/22 00:50:49;;;;;;;35.17;20.92;;;13.60;99.90;;;;;;4954363;28;20035;-87
2023/09/22 00:53:16;;;;;;;32.53;20.50;;;13.60;99.90;;;;;;4941644;29;20373;-87
2023/09/22 00:55:42;;;;;;;28.98;18.73;;;13.50;99.90;;;;;;4954685;29;20031;-88
2023/09/22 00:58:08;;;;;;;27.85;19.38;;;13.40;99.90;;;;;;4952359;28;20039;-88
2023/09/22 01:00:34;;;;;;;29.20;17.80;;;13.30;99.90;;;;;;4953156;28;20095;-88
2023/09/22 01:03:00;;;;;;;32.00;18.35;;;13.30;99.90;;;;;;4949141;28;20027;-88
2023/09/22 01:05:26;;;;;;;26.45;17.33;;;13.20;99.90;;;;;;4952407;29;20123;-88
2023/09/22 01:07:51;;;;;;;30.02;18.02;;;13.10;99.90;;;;;;4952665;29;20117;-87
2023/09/22 01:10:17;;;;;;;26.55;15.65;;;13.10;99.90;;;;;;4946135;28;20116;-88
2023/09/22 01:12:43;;;;;;;25.23;15.38;;;13.00;99.90;;;;;;4950375;28;20039;-88
2023/09/22 01:15:09;;;;;;;27.05;14.70;;;13.00;99.90;;;;;;4954028;28;20058;-88
2023/09/22 01:17:35;;;;;;;21.10;13.27;;;13.00;99.90;;;;;;4954911;28;20042;-89
2023/09/22 01:20:03;;;;;;;26.40;13.68;;;13.00;99.90;;;;;;4952935;28;20447;-88
2023/09/22 01:22:29;;;;;;;22.63;12.75;;;12.90;99.90;;;;;;4953197;29;20051;-88
2023/09/22 01:24:56;;;;;;;20.55;11.43;;;13.00;99.90;;;;;;4953714;28;20027;-88
2023/09/22 01:27:21;;;;;;;21.98;12.50;;;12.90;99.90;;;;;;4955228;28;20082;-88
2023/09/22 01:29:47;;;;;;;20.08;11.95;;;12.80;99.90;;;;;;4953222;28;20380;-88
2023/09/22 01:32:13;;;;;;;20.98;11.98;;;12.80;99.90;;;;;;4951491;29;20047;-88
2023/09/22 01:34:38;;;;;;;22.48;11.25;;;12.80;99.90;;;;;;4950101;28;20357;-89
2023/09/22 01:37:07;;;;;;;19.08;11.10;;;12.70;99.90;;;;;;4923916;29;20101;-88
2023/09/22 01:39:37;;;;;;;18.85;11.13;;;12.70;99.90;;;;;;4934903;29;20051;-88
2023/09/22 01:42:03;;;;;;;17.75;11.57;;;12.70;99.90;;;;;;4951014;28;20448;-88
2023/09/22 01:44:28;;;;;;;17.77;10.75;;;12.60;99.90;;;;;;4945242;28;20107;-89
2023/09/22 01:46:54;;;;;;;20.27;11.10;;;12.50;99.90;;;;;;4933633;29;20027;-90
2023/09/22 01:49:20;;;;;;;16.58;10.10;;;12.50;99.90;;;;;;4945916;28;20065;-90
2023/09/22 01:51:45;;;;;;;20.17;10.80;;;12.50;99.90;;;;;;4950087;28;20497;-88
2023/09/22 01:54:11;;;;;;;15.90;9.65;;;12.40;99.90;;;;;;4948740;28;20035;-88
2023/09/22 01:56:36;;;;;;;17.20;10.75;;;12.30;99.90;;;;;;4946892;29;20031;-89
2023/09/22 01:59:02;;;;;;;18.45;9.98;;;12.30;99.90;;;;;;4953652;29;20031;-89
2023/09/22 02:01:27;;;;;;;20.67;10.70;;;12.30;99.90;;;;;;4945291;28;20066;-89
2023/09/22 02:03:53;;;;;;;18.00;10.52;;;12.20;99.90;;;;;;4951728;29;20031;-89
2023/09/22 02:06:18;;;;;;;18.85;11.07;;;12.20;99.90;;;;;;4953728;29;20036;-89
2023/09/22 02:08:44;;;;;;;17.20;9.82;;;12.20;99.90;;;;;;4929042;29;20039;-89
2023/09/22 02:11:11;;;;;;;15.20;9.25;;;12.10;99.90;;;;;;4949217;28;20031;-89
2023/09/22 02:13:37;;;;;;;15.77;9.88;;;12.00;99.90;;;;;;4947690;28;20035;-89
2023/09/22 02:16:03;;;;;;;18.17;10.55;;;12.00;99.90;;;;;;4952948;28;20023;-89
2023/09/22 02:18:29;;;;;;;20.50;10.43;;;12.00;99.90;;;;;;4935430;29;20126;-89
2023/09/22 02:20:54;;;;;;;20.25;10.52;;;11.90;99.90;;;;;;4937310;29;20086;-89
2023/09/22 02:23:20;;;;;;;18.48;10.68;;;11.90;99.90;;;;;;4952892;29;20031;-89
2023/09/22 02:25:46;;;;;;;17.05;10.18;;;11.90;99.90;;;;;;4953833;28;20019;-89
2023/09/22 02:28:12;;;;;;;18.63;9.63;;;11.90;99.90;;;;;;4947682;28;20030;-88
2023/09/22 02:30:37;;;;;;;18.25;9.93;;;12.00;99.90;;;;;;4945055;29;20042;-89
2023/09/22 02:33:04;;;;;;;16.88;9.43;;;12.00;99.90;;;;;;4948147;28;20518;-88
2023/09/22 02:35:29;;;;;;;21.52;10.35;;;12.00;99.90;;;;;;4932744;29;20044;-89
2023/09/22 02:37:55;;;;;;;19.70;9.43;;;12.00;99.90;;;;;;4937438;29;20461;-88
2023/09/22 02:40:20;;;;;;;20.45;9.77;;;12.00;99.90;;;;;;4944852;28;20440;-88
2023/09/22 02:42:46;;;;;;;15.48;8.82;;;12.00;99.90;;;;;;4920473;29;20040;-89
2023/09/22 02:45:12;;;;;;;14.80;8.57;;;12.00;99.90;;;;;;4944810;28;20024;-89
2023/09/22 02:47:40;;;;;;;19.85;9.80;;;12.00;99.90;;;;;;4948505;28;20392;-88
2023/09/22 02:50:09;;;;;;;22.08;8.90;;;11.90;99.90;;;;;;4948789;29;20024;-88
2023/09/22 02:52:35;;;;;;;23.55;10.68;;;11.90;99.90;;;;;;4950265;29;20035;-88
2023/09/22 02:55:03;;;;;;;19.90;10.43;;;11.90;99.90;;;;;;4950608;29;20392;-89
2023/09/22 02:57:28;;;;;;;22.77;10.15;;;11.90;99.90;;;;;;4926685;29;20036;-89
2023/09/22 02:59:54;;;;;;;19.42;10.32;;;11.90;99.90;;;;;;4950160;29;20031;-89
2023/09/22 03:02:20;;;;;;;26.83;11.20;;;11.90;99.90;;;;;;4948095;28;20404;-89
2023/09/22 03:04:47;;;;;;;19.48;9.45;;;11.90;99.90;;;;;;4946343;29;20024;-88
2023/09/22 03:07:12;;;;;;;29.90;11.23;;;12.00;99.90;;;;;;4948444;29;20036;-88
2023/09/22 03:09:38;;;;;;;25.92;11.32;;;12.00;99.90;;;;;;4932751;29;20123;-89
2023/09/22 03:12:04;;;;;;;23.70;10.98;;;12.00;99.90;;;;;;4949241;28;20063;-88
2023/09/22 03:14:29;;;;;;;23.45;11.40;;;12.00;99.90;;;;;;4942657;29;20114;-89
2023/09/22 03:16:57;;;;;;;24.70;10.48;;;12.10;99.90;;;;;;4935875;29;20042;-89
2023/09/22 03:19:23;;;;;;;22.02;10.80;;;12.10;99.90;;;;;;4951841;28;20035;-89
2023/09/22 03:21:50;;;;;;;22.02;11.45;;;12.10;99.90;;;;;;4950353;29;20051;-89
2023/09/22 03:24:15;;;;;;;24.58;11.02;;;12.10;99.90;;;;;;4950094;28;20032;-88
2023/09/22 03:26:41;;;;;;;23.75;11.07;;;12.20;99.90;;;;;;4948608;29;20027;-88
2023/09/22 03:29:06;;;;;;;25.70;12.10;;;12.10;99.90;;;;;;4946225;28;20042;-88
2023/09/22 03:31:32;;;;;;;30.33;11.50;;;12.20;99.90;;;;;;4948206;28;20460;-88
2023/09/22 03:33:58;;;;;;;29.92;11.90;;;12.20;99.90;;;;;;4952767;29;20030;-88
2023/09/22 03:36:24;;;;;;;25.52;12.27;;;12.20;99.90;;;;;;4952703;29;20083;-88
2023/09/22 03:38:51;;;;;;;23.42;11.55;;;12.20;99.90;;;;;;4952745;28;20387;-88
2023/09/22 03:41:18;;;;;;;24.23;12.02;;;12.20;99.90;;;;;;4951164;28;20031;-89
2023/09/22 03:43:43;;;;;;;23.42;12.15;;;12.20;99.90;;;;;;4950906;28;20488;-88
2023/09/22 03:46:10;;;;;;;25.33;11.27;;;12.20;99.90;;;;;;4938023;29;20034;-89
2023/09/22 03:48:38;;;;;;;26.40;12.73;;;12.20;99.90;;;;;;4935967;29;20463;-88
2023/09/22 03:51:05;;;;;;;25.42;11.45;;;12.20;99.90;;;;;;4951986;28;20087;-89
2023/09/22 03:53:31;;;;;;;25.35;11.90;;;12.30;99.90;;;;;;4954131;28;20050;-89
2023/09/22 03:55:57;;;;;;;26.48;11.65;;;12.30;99.90;;;;;;4952399;28;20031;-89
2023/09/22 03:58:23;;;;;;;24.45;11.30;;;12.30;99.90;;;;;;4955197;29;20032;-89
2023/09/22 04:00:48;;;;;;;23.27;11.35;;;12.30;99.90;;;;;;4956530;29;20019;-89
2023/09/22 04:03:15;;;;;;;23.88;11.50;;;12.30;99.90;;;;;;4943472;29;20488;-89
2023/09/22 04:05:40;;;;;;;24.88;11.07;;;12.30;99.90;;;;;;4938893;29;20111;-89
2023/09/22 04:08:06;;;;;;;22.60;10.95;;;12.40;99.90;;;;;;4953547;28;20122;-89
2023/09/22 04:10:35;;;;;;;19.67;10.85;;;12.30;99.90;;;;;;4956586;29;20023;-88
2023/09/22 04:13:00;;;;;;;22.98;11.18;;;12.40;99.90;;;;;;4937356;29;20412;-89
2023/09/22 04:15:26;;;;;;;20.60;10.65;;;12.40;99.90;;;;;;4955956;28;20102;-88
2023/09/22 04:17:52;;;;;;;24.42;11.80;;;12.50;99.90;;;;;;4955445;29;20043;-88
2023/09/22 04:20:26;;;;;;;18.52;10.15;;;12.50;99.90;;;;;;4948820;28;20484;-88
2023/09/22 04:22:53;;;;;;;20.45;10.35;;;12.50;99.90;;;;;;4934748;29;20680;-88
2023/09/22 04:25:29;;;;;;;19.77;10.55;;;12.60;99.90;;;;;;4955377;28;20039;-88
2023/09/22 04:27:57;;;;;;;21.73;10.60;;;12.60;99.90;;;;;;4954723;29;20027;-89
2023/09/22 04:30:24;;;;;;;22.15;9.88;;;12.60;99.90;;;;;;4954030;28;20039;-89
2023/09/22 04:32:51;;;;;;;21.30;9.85;;;12.70;99.90;;;;;;4938508;29;20133;-88
2023/09/22 04:35:17;;;;;;;19.75;9.52;;;12.70;99.90;;;;;;4954383;29;20058;-89
2023/09/22 04:37:42;;;;;;;21.17;8.88;;;12.60;99.90;;;;;;4957814;28;20031;-88
2023/09/22 04:40:23;;;;;;;17.83;9.27;;;12.70;99.90;;;;;;4952638;28;20035;-88
2023/09/22 04:42:49;;;;;;;18.70;9.18;;;12.70;99.90;;;;;;4951511;28;20032;-89
2023/09/22 04:45:18;;;;;;;16.92;8.63;;;12.80;99.90;;;;;;4939235;28;20059;-88
2023/09/22 04:47:46;;;;;;;18.48;9.23;;;12.80;99.90;;;;;;4933230;29;20031;-88
2023/09/22 04:50:15;;;;;;;16.95;8.45;;;12.80;99.90;;;;;;4954028;29;20027;-87
2023/09/22 04:52:40;;;;;;;14.20;7.78;;;12.70;99.90;;;;;;4940730;29;20110;-88
2023/09/22 04:55:06;;;;;;;15.20;8.13;;;12.70;99.90;;;;;;4938005;29;20110;-87
2023/09/22 04:57:32;;;;;;;16.75;8.35;;;12.70;99.90;;;;;;4954506;29;20067;-87
2023/09/22 04:59:57;;;;;;;15.38;7.80;;;12.60;99.90;;;;;;4948301;28;20034;-88
2023/09/22 05:02:23;;;;;;;16.95;8.15;;;12.60;99.90;;;;;;4938848;29;20042;-87
2023/09/22 05:04:48;;;;;;;15.80;7.82;;;12.50;99.90;;;;;;4955638;29;20023;-87
2023/09/22 05:07:14;;;;;;;12.57;7.10;;;12.40;99.90;;;;;;4955927;29;20117;-87
2023/09/22 05:09:39;;;;;;;14.30;7.82;;;12.40;99.90;;;;;;4953918;29;20023;-88
2023/09/22 05:12:05;;;;;;;12.63;6.82;;;12.30;99.90;;;;;;4952310;29;20035;-88
2023/09/22 05:14:30;;;;;;;15.52;7.13;;;12.30;99.90;;;;;;4952247;29;20059;-88
2023/09/22 05:16:56;;;;;;;12.52;6.30;;;12.20;99.90;;;;;;4952437;29;20043;-88
2023/09/22 05:19:21;;;;;;;12.57;6.78;;;12.30;99.90;;;;;;4952593;29;20031;-88
2023/09/22 05:21:47;;;;;;;10.20;5.82;;;12.20;99.90;;;;;;4961973;28;20027;-88
2023/09/22 05:24:12;;;;;;;10.23;6.20;;;12.20;99.90;;;;;;4967840;28;20039;-88
2023/09/22 05:26:38;;;;;;;12.68;6.53;;;12.20;99.90;;;;;;4954238;29;20028;-88
2023/09/22 05:29:04;;;;;;;9.07;5.63;;;12.10;99.90;;;;;;4954665;29;20055;-88
2023/09/22 05:31:30;;;;;;;9.85;5.15;;;12.10;99.90;;;;;;4948382;29;20032;-87
2023/09/22 05:33:55;;;;;;;7.97;4.78;;;12.20;99.90;;;;;;4956204;28;20039;-87
2023/09/22 05:36:21;;;;;;;11.85;5.20;;;12.10;99.90;;;;;;4939160;29;20034;-87
2023/09/22 05:38:46;;;;;;;10.88;4.93;;;12.10;99.90;;;;;;4938776;28;20039;-87
2023/09/22 05:41:12;;;;;;;9.55;5.10;;;12.10;99.90;;;;;;4956678;28;20078;-87
2023/09/22 05:43:38;;;;;;;6.18;4.03;;;12.10;99.90;;;;;;4954868;29;20066;-85
2023/09/22 05:46:04;;;;;;;8.23;3.97;;;12.10;99.90;;;;;;4956009;29;20468;-86
2023/09/22 05:48:30;;;;;;;6.60;4.35;;;12.20;99.90;;;;;;4954778;29;20054;-86
2023/09/22 05:50:57;;;;;;;7.25;4.18;;;12.20;99.90;;;;;;4949723;29;20042;-86
2023/09/22 05:53:24;;;;;;;9.40;3.90;;;12.20;99.90;;;;;;4938890;29;20522;-86
2023/09/22 05:56:02;;;;;;;10.65;4.28;;;12.20;99.90;;;;;;4954821;29;20028;-86
2023/09/22 05:58:28;;;;;;;6.60;3.75;;;12.20;99.90;;;;;;4954693;29;20042;-86
2023/09/22 06:00:53;;;;;;;8.30;4.00;;;12.20;99.90;;;;;;4947808;29;20424;-85
2023/09/22 06:03:20;;;;;;;7.00;3.97;;;12.20;99.90;;;;;;4948317;29;20354;-86
2023/09/22 06:05:46;;;;;;;5.53;3.85;;;12.30;99.90;;;;;;4969595;28;20043;-86
2023/09/22 06:08:12;;;;;;;9.10;4.25;;;12.30;99.90;;;;;;4964899;28;20035;-86
2023/09/22 06:10:37;;;;;;;7.07;3.63;;;12.40;99.90;;;;;;4931271;29;20369;-86
2023/09/22 06:13:03;;;;;;;6.25;3.58;;;12.40;99.90;;;;;;4962149;28;20032;-86
2023/09/22 06:15:28;;;;;;;5.47;3.53;;;12.40;99.90;;;;;;4956147;28;20058;-86
2023/09/22 06:17:54;;;;;;;6.72;3.83;;;12.40;99.90;;;;;;4973564;28;20046;-87
2023/09/22 06:20:20;;;;;;;8.50;3.65;;;12.50;99.90;;;;;;4963035;28;20031;-85
2023/09/22 06:22:49;;;;;;;7.10;3.75;;;12.50;99.90;;;;;;4953544;28;20129;-85
2023/09/22 06:25:15;;;;;;;8.23;3.30;;;12.60;99.90;;;;;;4937665;29;20399;-86
2023/09/22 06:27:44;;;;;;;7.20;3.55;;;12.60;99.90;;;;;;4948873;29;20027;-87
2023/09/22 06:30:13;;;;;;;7.35;4.75;;;12.60;99.90;;;;;;4954108;29;20110;-87
2023/09/22 06:32:41;;;;;;;6.40;3.10;;;12.60;99.90;;;;;;4940941;28;20046;-86
2023/09/22 06:35:08;;;;;;;6.47;3.42;;;12.70;99.90;;;;;;4953516;28;20031;-87
2023/09/22 06:37:36;;;;;;;7.28;3.45;;;12.80;99.90;;;;;;4954056;29;20031;-87
2023/09/22 06:40:06;;;;;;;6.18;3.38;;;12.80;99.90;;;;;;4945440;29;20451;-87
2023/09/22 06:42:31;;;;;;;6.82;3.10;;;12.90;99.90;;;;;;4954503;29;20027;-87
2023/09/22 06:44:57;;;;;;;6.35;2.65;;;12.90;99.90;;;;;;4937289;29;20576;-86
2023/09/22 06:47:23;;;;;;;4.95;2.85;;;13.00;99.90;;;;;;4941645;29;20030;-87
2023/09/22 06:49:49;;;;;;;6.70;2.95;;;13.10;99.90;;;;;;4945962;29;20480;-87
2023/09/22 06:52:15;;;;;;;9.45;3.25;;;13.10;99.90;;;;;;4953841;29;20023;-86
2023/09/22 06:54:51;;;;;;;7.60;2.33;;;13.20;99.90;;;;;;4953844;29;20027;-86
2023/09/22 06:57:16;;;;;;;4.75;3.05;;;13.30;99.90;;;;;;4938132;29;20043;-86
2023/09/22 06:59:42;;;;;;;6.18;3.03;;;13.40;99.90;;;;;;4937910;29;20026;-87
2023/09/22 07:02:08;;;;;;;6.30;2.72;;;13.40;99.90;;;;;;4952973;29;20455;-87
2023/09/22 07:04:34;;;;;;;9.38;2.95;;;13.40;99.90;;;;;;4955029;29;20090;-88
2023/09/22 07:07:01;;;;;;;5.63;2.78;;;13.50;99.90;;;;;;4954088;29;20027;-86
2023/09/22 07:09:27;;;;;;;3.42;1.88;;;13.60;99.90;;;;;;4937822;29;20057;-86
2023/09/22 07:11:53;;;;;;;5.30;2.05;;;13.70;99.90;;;;;;4953884;29;20019;-87
2023/09/22 07:14:18;;;;;;;3.92;1.85;;;13.70;99.90;;;;;;4953911;29;20023;-87
2023/09/22 07:16:44;;;;;;;3.70;1.80;;;13.80;99.90;;;;;;4953217;29;20023;-87
2023/09/22 07:19:10;;;;;;;4.25;1.50;;;13.80;99.90;;;;;;4954392;29;20078;-88
2023/09/22 07:21:35;;;;;;;4.53;1.92;;;13.90;99.90;;;;;;4954794;28;20031;-87
2023/09/22 07:24:01;;;;;;;3.33;1.58;;;14.00;99.90;;;;;;4953625;29;20031;-87
2023/09/22 07:26:27;;;;;;;5.05;1.42;;;14.00;99.90;;;;;;4939333;29;20436;-87
2023/09/22 07:28:52;;;;;;;6.95;1.20;;;14.10;99.90;;;;;;4957368;29;20505;-87
2023/09/22 07:31:18;;;;;;;4.30;1.63;;;14.10;99.90;;;;;;4956879;28;20032;-87
2023/09/22 07:33:44;;;;;;;3.58;1.70;;;14.20;99.90;;;;;;4957198;29;20496;-88
2023/09/22 07:36:10;;;;;;;7.55;2.60;;;14.20;99.90;;;;;;4957830;29;20373;-87
2023/09/22 07:38:36;;;;;;;3.60;1.80;;;14.20;99.90;;;;;;4957383;29;20031;-87
2023/09/22 07:41:02;;;;;;;5.05;1.60;;;14.30;99.90;;;;;;4958305;29;20365;-87
2023/09/22 07:43:30;;;;;;;7.20;1.60;;;14.30;99.90;;;;;;4957543;29;20059;-87
2023/09/22 07:45:57;;;;;;;6.45;1.40;;;14.40;99.90;;;;;;4955149;29;20033;-87
2023/09/22 07:48:23;;;;;;;5.13;1.17;;;14.40;99.90;;;;;;4947963;29;20081;-87
2023/09/22 07:50:48;;;;;;;5.45;1.10;;;14.40;99.90;;;;;;4957139;29;20054;-88
2023/09/22 07:53:14;;;;;;;5.25;1.13;;;14.40;99.90;;;;;;4958049;29;20047;-87
2023/09/22 07:55:40;;;;;;;3.53;0.70;;;14.30;99.90;;;;;;4957215;29;20023;-87
2023/09/22 07:58:06;;;;;;;3.63;0.80;;;14.30;99.90;;;;;;4957208;29;20046;-87
2023/09/22 08:00:33;;;;;;;3.00;0.70;;;14.40;99.90;;;;;;4956442;29;20027;-88
2023/09/22 08:03:03;;;;;;;3.97;0.80;;;14.50;99.90;;;;;;4944447;29;20023;-88
2023/09/22 08:05:28;;;;;;;3.75;0.50;;;14.50;99.90;;;;;;4938011;29;20028;-88
2023/09/22 08:07:54;;;;;;;5.15;1.13;;;14.60;99.90;;;;;;4950979;29;20031;-88
2023/09/22 08:10:22;;;;;;;2.55;0.50;;;14.60;99.90;;;;;;4958187;28;20024;-87
2023/09/22 08:12:48;;;;;;;2.72;0.60;;;14.80;99.90;;;;;;4956913;29;20036;-88
2023/09/22 08:15:14;;;;;;;1.48;0.60;;;14.80;99.90;;;;;;4956660;28;20023;-88
2023/09/22 08:17:41;;;;;;;2.78;0.40;;;14.90;99.90;;;;;;4956528;29;20055;-88
2023/09/22 08:20:11;;;;;;;1.98;0.68;;;15.10;99.90;;;;;;4970851;28;20035;-88
2023/09/22 08:22:37;;;;;;;2.65;0.40;;;15.20;99.90;;;;;;4972719;28;20035;-88
2023/09/22 08:25:04;;;;;;;2.67;0.40;;;15.30;99.90;;;;;;4975844;28;20029;-87
2023/09/22 08:27:30;;;;;;;2.42;0.60;;;15.30;99.90;;;;;;4977039;28;20019;-88
2023/09/22 08:29:55;;;;;;;5.40;0.75;;;15.40;99.90;;;;;;4969999;28;20039;-89
2023/09/22 08:32:21;;;;;;;0.77;0.30;;;15.50;99.90;;;;;;4956462;29;20104;-88
2023/09/22 08:34:47;;;;;;;2.20;0.30;;;15.60;99.90;;;;;;4957538;29;20024;-88
2023/09/22 08:37:13;;;;;;;2.47;0.40;;;15.60;99.90;;;;;;4955982;28;20039;-88
2023/09/22 08:39:39;;;;;;;1.77;0.25;;;15.60;99.90;;;;;;4957357;29;20034;-88
2023/09/22 08:42:05;;;;;;;5.47;0.40;;;15.60;99.90;;;;;;4956516;29;20033;-88
2023/09/22 08:44:30;;;;;;;2.90;0.40;;;15.60;99.90;;;;;;4955867;29;20023;-87
2023/09/22 08:46:57;;;;;;;2.85;0.40;;;15.70;99.90;;;;;;4956281;29;20146;-87
2023/09/22 08:49:23;;;;;;;3.47;0.30;;;15.80;99.90;;;;;;4941890;29;20027;-87
2023/09/22 08:51:49;;;;;;;0.98;0.30;;;15.90;99.90;;;;;;4936934;29;20400;-88
2023/09/22 08:54:14;;;;;;;2.55;0.30;;;15.90;99.90;;;;;;4936969;29;20035;-89
2023/09/22 08:56:40;;;;;;;3.85;0.30;;;16.00;99.90;;;;;;4937089;29;20032;-88
2023/09/22 08:59:09;;;;;;;1.58;0.30;;;16.10;99.90;;;;;;4938427;29;20031;-88
2023/09/22 09:01:35;;;;;;;3.92;0.40;;;16.20;99.90;;;;;;4956106;29;20056;-88
2023/09/22 09:04:31;;;;;;;0.95;0.22;;;16.20;99.90;;;;;;4955939;29;20027;-89
2023/09/22 09:06:56;;;;;;;2.00;0.20;;;16.30;99.90;;;;;;4955951;29;20020;-88
2023/09/22 09:09:22;;;;;;;2.90;0.30;;;16.20;99.90;;;;;;4955792;29;20567;-87
2023/09/22 09:12:00;;;;;;;1.40;0.30;;;16.00;99.90;;;;;;4955606;29;20019;-88
2023/09/22 09:14:29;;;;;;;1.67;0.20;;;15.90;99.90;;;;;;4956521;29;20027;-89
2023/09/22 09:16:58;;;;;;;6.07;0.30;;;15.80;99.90;;;;;;4955346;28;20127;-88
2023/09/22 09:19:26;;;;;;;0.82;0.20;;;15.70;99.90;;;;;;4955745;29;20456;-87
2023/09/22 09:22:09;;;;;;;1.75;0.30;;;15.60;99.90;;;;;;4955548;29;20027;-87
2023/09/22 09:24:35;;;;;;;1.23;0.20;;;15.40;99.90;;;;;;4955707;29;20033;-89
2023/09/22 09:27:13;;;;;;;0.88;0.20;;;15.30;99.90;;;;;;4954835;29;20114;-87
2023/09/22 09:29:39;;;;;;;2.00;0.55;;;15.20;99.90;;;;;;4955389;29;20035;-88
2023/09/22 09:32:04;;;;;;;1.52;0.30;;;15.20;99.90;;;;;;4955116;29;20558;-88
2023/09/22 09:34:40;;;;;;;1.38;0.30;;;15.30;99.90;;;;;;4955068;28;20050;-88
2023/09/22 09:37:13;;;;;;;1.80;0.30;;;15.40;99.90;;;;;;4955937;29;20030;-88
2023/09/22 09:39:47;;;;;;;2.15;0.30;;;15.70;99.90;;;;;;4955358;29;20387;-87
2023/09/22 09:42:17;;;;;;;1.10;0.17;;;15.80;99.90;;;;;;4956014;29;20035;-87
2023/09/22 09:44:49;;;;;;;2.20;0.40;;;16.00;99.90;;;;;;4939198;29;20077;-88
2023/09/22 09:47:25;;;;;;;2.72;0.20;;;16.10;99.90;;;;;;4939067;29;20030;-87
2023/09/22 09:49:55;;;;;;;4.10;0.20;;;16.40;99.90;;;;;;4944273;28;20032;-88
2023/09/22 09:52:27;;;;;;;1.13;0.15;;;16.50;99.90;;;;;;4937046;29;20114;-88
2023/09/22 09:55:08;;;;;;;1.60;0.30;;;16.70;99.90;;;;;;4954408;29;20031;-87
2023/09/22 09:57:39;;;;;;;2.03;0.20;;;16.90;99.90;;;;;;4954910;29;20035;-88
2023/09/22 10:00:13;;;;;;;2.15;0.32;;;16.90;99.90;;;;;;4954960;29;20027;-87
2023/09/22 10:02:43;;;;;;;0.95;0.20;;;16.90;99.90;;;;;;4954125;29;20033;-87
2023/09/22 10:05:17;;;;;;;2.28;0.20;;;16.90;99.90;;;;;;4936664;29;20027;-87
2023/09/22 10:07:44;;;;;;;1.90;0.17;;;16.80;99.90;;;;;;4950295;29;20520;-88
2023/09/22 10:10:15;;;;;;;4.25;0.30;;;16.60;99.90;;;;;;4954074;29;20110;-88
2023/09/22 10:12:43;;;;;;;2.08;0.20;;;16.30;99.90;;;;;;4935953;29;20031;-88
2023/09/22 10:15:10;;;;;;;1.58;0.20;;;16.10;99.90;;;;;;4935172;29;20028;-87
2023/09/22 10:17:36;;;;;;;2.47;0.20;;;16.00;99.90;;;;;;4935336;29;20067;-87
2023/09/22 10:20:07;;;;;;;1.80;0.28;;;15.90;99.90;;;;;;4935564;29;20019;-87
2023/09/22 10:22:33;;;;;;;2.67;0.30;;;16.00;99.90;;;;;;4935549;29;20035;-87
2023/09/22 10:25:14;;;;;;;1.23;0.20;;;16.10;99.90;;;;;;4919391;29;20027;-87
2023/09/22 10:27:59;;;;;;;1.98;0.20;;;16.20;99.90;;;;;;4940992;29;20023;-87
2023/09/22 10:30:44;;;;;;;1.65;0.52;;;16.20;99.90;;;;;;4955210;29;20035;-87
2023/09/22 10:33:16;;;;;;;2.15;0.20;;;16.00;99.90;;;;;;4955115;29;20055;-87
2023/09/22 10:35:46;;;;;;;3.05;0.20;;;15.90;99.90;;;;;;4955692;29;20086;-87
2023/09/22 10:38:12;;;;;;;1.50;0.52;;;15.90;99.90;;;;;;4955319;29;20078;-87
2023/09/22 10:40:40;;;;;;;0.90;0.10;;;15.90;99.90;;;;;;4954234;29;20424;-87
2023/09/22 10:43:06;;;;;;;1.67;0.20;;;15.90;99.90;;;;;;4953548;29;20085;-87
2023/09/22 10:45:31;;;;;;;1.35;0.32;;;16.00;99.90;;;;;;4954151;29;20050;-86
2023/09/22 10:47:59;;;;;;;0.93;0.10;;;16.10;99.90;;;;;;4955228;29;20035;-87
2023/09/22 10:50:33;;;;;;;1.73;0.20;;;16.30;99.90;;;;;;4953882;29;20030;-88
2023/09/22 10:53:04;;;;;;;1.10;0.10;;;16.60;99.90;;;;;;4935177;29;20030;-87
2023/09/22 10:55:38;;;;;;;2.13;0.10;;;16.90;99.90;;;;;;4935131;29;20034;-88
2023/09/22 10:58:05;;;;;;;0.77;0.10;;;17.10;99.90;;;;;;4938263;29;20047;-88
2023/09/22 11:00:32;;;;;;;1.38;0.20;;;17.20;99.90;;;;;;4942991;28;20114;-88
2023/09/22 11:03:08;;;;;;;1.17;0.20;;;17.40;99.90;;;;;;4943654;29;20031;-88
2023/09/22 11:05:38;;;;;;;1.52;0.10;;;17.50;99.90;;;;;;4938847;29;20032;-87
2023/09/22 11:08:15;;;;;;;1.35;0.20;;;17.50;99.90;;;;;;4945411;29;20114;-88
2023/09/22 11:10:43;;;;;;;0.55;0.30;;;17.70;99.90;;;;;;4941888;29;20114;-88
2023/09/22 11:13:08;;;;;;;2.95;0.45;;;17.80;99.90;;;;;;4941204;29;20038;-87
2023/09/22 11:15:35;;;;;;;2.40;0.20;;;17.90;99.90;;;;;;4957553;29;20403;-87
2023/09/22 11:18:01;;;;;;;1.25;0.17;;;18.00;99.90;;;;;;4958739;29;20028;-87
2023/09/22 11:20:28;;;;;;;1.38;0.20;;;18.10;99.90;;;;;;4957316;29;20062;-87
2023/09/22 11:22:55;;;;;;;2.65;0.20;;;18.20;99.90;;;;;;4957793;29;20027;-87
2023/09/22 11:25:22;;;;;;;0.57;0.10;;;18.20;99.90;;;;;;4957499;29;20024;-87
2023/09/22 11:27:50;;;;;;;3.00;0.30;;;18.30;99.90;;;;;;4957380;29;20059;-87
2023/09/22 11:30:19;;;;;;;1.23;0.20;;;18.50;99.90;;;;;;4958089;29;20023;-86
2023/09/22 11:32:46;;;;;;;2.50;0.20;;;18.60;99.90;;;;;;4945655;29;20102;-87
2023/09/22 11:35:40;;;;;;;1.48;0.20;;;18.70;99.90;;;;;;4938217;29;20028;-87
2023/09/22 11:38:25;;;;;;;1.48;0.10;;;18.80;99.90;;;;;;4937987;29;20134;-87
2023/09/22 11:40:55;;;;;;;1.50;0.43;;;18.60;99.90;;;;;;4948166;29;20031;-89
2023/09/22 11:43:21;;;;;;;1.67;0.20;;;18.60;99.90;;;;;;4958198;29;20118;-88
2023/09/22 11:45:47;;;;;;;2.67;0.52;;;18.70;99.90;;;;;;4967368;28;20114;-87
2023/09/22 11:48:12;;;;;;;0.88;0.10;;;18.80;99.90;;;;;;4937874;29;20031;-87
2023/09/22 11:50:38;;;;;;;0.93;0.13;;;19.00;99.90;;;;;;4939022;29;20472;-88
2023/09/22 11:53:30;;;;;;;0.95;0.20;;;19.10;99.90;;;;;;4937724;29;20036;-87
2023/09/22 11:55:55;;;;;;;1.50;0.10;;;19.10;99.90;;;;;;4937673;29;20054;-87
2023/09/22 11:58:21;;;;;;;1.65;0.20;;;19.20;99.90;;;;;;4958130;29;20039;-88
2023/09/22 12:00:47;;;;;;;0.70;0.10;;;19.30;99.90;;;;;;4958112;28;20024;-87
2023/09/22 12:03:12;;;;;;;1.70;0.20;;;19.30;99.90;;;;;;4956692;29;20109;-88
2023/09/22 12:05:38;;;;;;;0.80;0.20;;;19.30;99.90;;;;;;4956999;29;20487;-87
2023/09/22 12:08:05;;;;;;;3.28;0.30;;;19.30;99.90;;;;;;4958011;29;20074;-88
2023/09/22 12:10:31;;;;;;;0.50;0.10;;;19.30;99.90;;;;;;4940178;29;20487;-87
2023/09/22 12:12:56;;;;;;;1.55;0.40;;;19.20;99.90;;;;;;4957470;28;20087;-87
2023/09/22 12:15:22;;;;;;;3.17;0.20;;;19.20;99.90;;;;;;4956681;29;20027;-87
2023/09/22 12:17:47;;;;;;;2.25;0.20;;;19.30;99.90;;;;;;4956650;29;20408;-87
2023/09/22 12:20:13;;;;;;;1.83;0.25;;;19.50;99.90;;;;;;4956642;29;20021;-88
2023/09/22 12:22:39;;;;;;;3.10;0.25;;;19.70;99.90;;;;;;4956605;28;20118;-88
2023/09/22 12:25:07;;;;;;;1.67;0.17;;;19.80;99.90;;;;;;4955767;29;20038;-88
2023/09/22 12:27:32;;;;;;;3.17;0.20;;;19.80;99.90;;;;;;4956642;29;20114;-87
2023/09/22 12:29:58;;;;;;;0.93;0.20;;;19.70;99.90;;;;;;4952083;28;20122;-87
2023/09/22 12:32:25;;;;;;;0.75;0.20;;;19.70;99.90;;;;;;4946894;29;20134;-87
2023/09/22 12:34:50;;;;;;;2.95;0.30;;;19.70;99.90;;;;;;4956321;29;20127;-88
2023/09/22 12:37:16;;;;;;;1.00;0.20;;;19.70;99.90;;;;;;4956208;29;20126;-87
2023/09/22 12:39:41;;;;;;;0.77;0.30;;;19.70;99.90;;;;;;4957223;29;20023;-87